Hundvaag 1 weather for Mar 2006
Month no. 225
Obs.
Da.
Temp. Dew Point Precip. Wind
Speed
Wind gusts Cloud cover Press. Humidity Wind dir. Sunny OPT
01.03.2006 -1,1   0,0 11,3   6 986,0 64,0 22,5   60,0 %
02.03.2006 -2,6   0,0 0,0   1 989,4 71,0   1 52,5 %
03.03.2006 -4,6   0,0 0,0   9 992,4 64,0   1 72,5 %
04.03.2006 -3,9   0,0 1,0   1 989,1 64,0 0,0 1 52,5 %
05.03.2006 -2,3   0,0 2,0   8 994,8 68,0 247,5 1 72,5 %
06.03.2006 -1,5   2,1 0,0   7 996,5 84,0   1 70,0 %
07.03.2006 -4,0   0,0 0,0   10 1011,1 78,0   1 75,0 %
08.03.2006 2,4   0,0 5,0   7 1002,6 85,0 180,0 1 70,0 %
09.03.2006 0,6   0,0 0,0   7 998,9 61,0   1 72,5 %
10.03.2006 -2,4   0,0 0,0   6 1002,3 56,0   1 67,5 %
11.03.2006 -2,4   0,0 2,0   10 1016,1 56,0 22,5 1 77,5 %
12.03.2006 1,5   0,0 0,0   10 1024,9 62,0   1 80,0 %
13.03.2006 -0,6   0,0 9,7   5 1029,0 63,0 135,0 1 60,0 %
14.03.2006 -1,9   0,0 3,2   9 1026,3 62,0 135,0 1 75,0 %
15.03.2006 -4,4   0,0 0,0   10 1029,7 63,0   1 75,0 %
16.03.2006 -0,1   0,0 3,2   3 1032,7 72,0 0,0 1 60,0 %
17.03.2006 -1,2   0,0 1,7   10 1031,0 79,0   1 77,5 %
18.03.2006 -0,9   0,0 0,0   5 1020,5 83,0   1 65,0 %
19.03.2006 3,1   0,0 8,0   9 1008,4 87,0 337,5 1 75,0 %
20.03.2006 -0,5   0,0 16,1   10 1007,0 74,0 0,0 1 67,5 %
21.03.2006 -0,6   0,0 0,0   7 1004,6 79,0   1 70,0 %
22.03.2006 -1,8   0,2 0,0   8 1002,3 76,0   1 72,5 %
23.03.2006 -1,0   2,6 0,0   5 1003,9 83,0   1 65,0 %
24.03.2006 1,8   0,0 3,2   9 1005,6 63,0 22,5 1 77,5 %
25.03.2006 4,6   0,0 0,0   1 1004,3 35,0     60,0 %
26.03.2006 4,2   0,0 4,8   0 997,9 38,0 67,5   55,0 %
27.03.2006 5,3   0,9 8,0   0 989,7 83,0 180,0   55,0 %
28.03.2006 7,6   12,0 25,7   0 977,5 82,0 157,5   35,0 %
29.03.2006 7,1   1,4 9,7   0 983,3 86,0 202,5 1 55,0 %
30.03.2006 6,0   3,0 0,0   1 993,1 87,0   1 60,0 %
31.03.2006 4,9   0,2 0,0   2 986,3 74,0   1 62,5 %
Avrg/Sum 0,4   22,4 3,7   5,7 1004,4 70,4 114,0 26 66,0 %